createdAt,value
2018-12-12T00:00:37.939Z,5.43
2018-12-12T00:02:42.862Z,4.27
2018-12-12T00:04:47.658Z,5.63
2018-12-12T00:06:53.816Z,5.33
2018-12-12T00:09:00.976Z,5.20
2018-12-12T00:11:05.895Z,4.73
2018-12-12T00:13:10.807Z,5.60
2018-12-12T00:15:17.581Z,6.00
2018-12-12T00:17:22.867Z,5.80
2018-12-12T00:19:28.442Z,4.77
2018-12-12T00:21:34.788Z,4.60
2018-12-12T00:23:40.272Z,4.73
2018-12-12T00:25:45.031Z,4.53
2018-12-12T00:27:50.462Z,5.70
2018-12-12T00:29:55.300Z,4.80
2018-12-12T00:32:00.130Z,4.60
2018-12-12T00:34:04.996Z,4.97
2018-12-12T00:36:09.798Z,5.60
2018-12-12T00:38:14.500Z,5.00
2018-12-12T00:40:19.172Z,5.80
2018-12-12T00:42:24.055Z,5.60
2018-12-12T00:44:30.164Z,6.10
2018-12-12T00:46:37.948Z,5.07
2018-12-12T00:48:43.352Z,5.57
2018-12-12T00:50:48.055Z,4.80
2018-12-12T00:52:52.919Z,5.20
2018-12-12T00:54:58.359Z,5.37
2018-12-12T00:57:04.095Z,5.33
2018-12-12T00:59:08.989Z,5.60
2018-12-12T01:01:13.749Z,5.10
2018-12-12T01:03:18.443Z,6.07
2018-12-12T01:05:23.188Z,5.77
2018-12-12T01:07:27.819Z,5.30
2018-12-12T01:09:33.058Z,4.90
2018-12-12T01:11:42.848Z,5.33
2018-12-12T01:13:47.528Z,5.93
2018-12-12T01:15:53.421Z,6.77
2018-12-12T01:17:58.191Z,6.20
2018-12-12T01:20:03.125Z,5.70
2018-12-12T01:22:07.836Z,5.80
2018-12-12T01:24:13.572Z,5.53
2018-12-12T01:26:19.204Z,6.43
2018-12-12T01:28:24.622Z,4.90
2018-12-12T01:30:29.398Z,5.00
2018-12-12T01:32:34.512Z,5.47
2018-12-12T01:34:39.258Z,5.10
2018-12-12T01:36:43.965Z,5.90
2018-12-12T01:38:48.702Z,5.07
2018-12-12T01:40:54.233Z,5.37
2018-12-12T01:42:59.914Z,5.53
2018-12-12T01:45:05.549Z,5.40
2018-12-12T01:47:11.354Z,5.00
2018-12-12T01:49:16.853Z,4.97
2018-12-12T01:51:21.666Z,5.00
2018-12-12T01:53:26.433Z,6.00
2018-12-12T01:55:31.273Z,4.60
2018-12-12T01:57:36.111Z,6.70
2018-12-12T01:59:40.827Z,5.73
2018-12-12T02:01:45.562Z,5.20
2018-12-12T02:03:50.396Z,6.30
2018-12-12T02:05:55.094Z,6.10
2018-12-12T02:08:01.227Z,6.80
2018-12-12T02:10:07.554Z,6.17
2018-12-12T02:12:13.031Z,6.40
2018-12-12T02:14:17.820Z,6.23
2018-12-12T02:16:22.912Z,6.47
2018-12-12T02:18:27.664Z,6.03
2018-12-12T02:20:32.342Z,6.33
2018-12-12T02:22:37.616Z,4.97
2018-12-12T02:24:43.058Z,6.93
2018-12-12T02:26:48.590Z,6.60
2018-12-12T02:28:53.252Z,5.57
2018-12-12T02:30:58.608Z,6.27
2018-12-12T02:33:03.444Z,6.13
2018-12-12T02:35:09.135Z,6.00
2018-12-12T02:37:21.449Z,6.30
2018-12-12T02:39:26.273Z,7.50
2018-12-12T02:41:30.910Z,6.77
2018-12-12T02:43:35.586Z,7.07
2018-12-12T02:45:40.262Z,6.70
2018-12-12T02:47:45.011Z,6.90
2018-12-12T02:49:49.827Z,6.77
2018-12-12T02:51:54.691Z,7.43
2018-12-12T02:54:00.385Z,7.43
2018-12-12T02:56:05.177Z,7.27
2018-12-12T02:58:09.888Z,7.37
2018-12-12T03:00:14.824Z,7.83
2018-12-12T03:02:19.522Z,8.10
2018-12-12T03:04:24.410Z,5.50
2018-12-12T03:06:29.094Z,7.00
2018-12-12T03:08:34.167Z,6.60
2018-12-12T03:10:39.159Z,6.97
2018-12-12T03:12:44.266Z,7.47
2018-12-12T03:14:49.858Z,6.87
2018-12-12T03:16:55.824Z,7.00
2018-12-12T03:19:01.677Z,6.83
2018-12-12T03:21:06.590Z,7.63
2018-12-12T03:23:12.426Z,8.50
2018-12-12T03:25:18.750Z,7.50
2018-12-12T03:27:23.590Z,7.43
2018-12-12T03:29:28.321Z,7.50
2018-12-12T03:31:33.060Z,7.37
2018-12-12T03:33:37.896Z,7.50
2018-12-12T03:35:42.582Z,6.90
2018-12-12T03:37:47.420Z,6.90
2018-12-12T03:39:52.196Z,7.70
2018-12-12T03:41:57.143Z,6.97
2018-12-12T03:44:02.135Z,6.67
2018-12-12T03:46:07.746Z,6.90
2018-12-12T03:48:12.466Z,7.03
2018-12-12T03:50:17.202Z,6.97
2018-12-12T03:52:21.872Z,6.70
2018-12-12T03:54:26.627Z,6.03
2018-12-12T03:56:32.127Z,7.47
2018-12-12T03:58:37.990Z,6.90
2018-12-12T04:00:42.724Z,6.10
2018-12-12T04:02:47.481Z,6.03
2018-12-12T04:04:52.231Z,6.00
2018-12-12T04:06:58.137Z,5.20
2018-12-12T04:09:03.147Z,5.20
2018-12-12T04:11:08.614Z,5.90
2018-12-12T04:13:13.394Z,5.43
2018-12-12T04:15:18.100Z,5.63
2018-12-12T04:17:23.458Z,6.57
2018-12-12T04:19:28.296Z,6.07
2018-12-12T04:21:33.561Z,5.50
2018-12-12T04:23:38.411Z,6.10
2018-12-12T04:25:43.946Z,5.80
2018-12-12T04:27:49.317Z,5.47
2018-12-12T04:29:54.077Z,6.93
2018-12-12T04:31:59.618Z,6.60
2018-12-12T04:34:04.647Z,6.07
2018-12-12T04:36:11.068Z,6.90
2018-12-12T04:38:16.810Z,6.03
2018-12-12T04:40:22.586Z,6.60
2018-12-12T04:42:27.486Z,6.47
2018-12-12T04:44:32.496Z,6.97
2018-12-12T04:46:37.460Z,6.03
2018-12-12T04:48:42.459Z,7.37
2018-12-12T04:50:48.384Z,6.80
2018-12-12T04:52:53.412Z,6.20
2018-12-12T04:54:58.631Z,6.67
2018-12-12T04:57:03.823Z,7.20
2018-12-12T04:59:10.006Z,6.00
2018-12-12T05:01:14.919Z,8.20
2018-12-12T05:03:19.694Z,6.27
2018-12-12T05:05:24.669Z,6.00
2018-12-12T05:07:29.444Z,6.70
2018-12-12T05:09:38.684Z,6.40
2018-12-12T05:11:54.926Z,6.20
2018-12-12T05:14:04.672Z,6.90
2018-12-12T06:18:34.858Z,6.27
2018-12-12T06:31:44.212Z,7.13
2018-12-12T08:48:39.538Z,9.37
2018-12-12T08:53:14.307Z,9.60
2018-12-12T10:16:02.008Z,3.40
2018-12-12T11:18:09.126Z,4.57
2018-12-12T15:23:05.965Z,5.37
2018-12-12T15:25:12.318Z,5.73
2018-12-12T15:27:19.230Z,5.60
2018-12-12T15:29:25.050Z,5.63
2018-12-12T15:31:31.035Z,6.00
2018-12-12T15:33:36.253Z,6.80
2018-12-12T15:35:42.629Z,5.20
2018-12-12T15:37:47.733Z,6.23
2018-12-12T15:39:53.054Z,5.23
2018-12-12T15:41:58.498Z,5.90
2018-12-12T15:44:03.471Z,5.63
2018-12-12T15:46:08.472Z,5.27
2018-12-12T15:48:14.684Z,5.90
2018-12-12T15:50:19.973Z,6.00
2018-12-12T15:52:25.067Z,6.10
2018-12-12T15:54:31.006Z,6.60
2018-12-12T15:56:37.620Z,6.30
2018-12-12T15:58:42.860Z,6.27
2018-12-12T16:00:51.090Z,6.10
2018-12-12T16:02:56.670Z,6.67
2018-12-12T16:05:02.085Z,4.90
2018-12-12T16:07:07.395Z,5.97
2018-12-12T16:09:13.802Z,6.30
2018-12-12T16:11:18.830Z,5.97
2018-12-12T16:13:23.738Z,6.83
2018-12-12T16:15:28.714Z,6.03
2018-12-12T16:17:33.733Z,4.40
2018-12-12T16:19:39.151Z,5.90
2018-12-12T16:21:44.830Z,5.60
2018-12-12T16:23:51.179Z,7.27
2018-12-12T16:25:56.321Z,5.70
2018-12-12T16:28:03.262Z,5.87
2018-12-12T16:30:09.426Z,5.40
2018-12-12T16:32:14.518Z,5.90
2018-12-12T16:34:20.147Z,5.60
2018-12-12T16:36:25.326Z,5.93
2018-12-12T16:38:30.702Z,5.93
2018-12-12T16:40:35.955Z,5.73
2018-12-12T16:42:43.342Z,6.57
2018-12-12T16:44:48.932Z,6.30
2018-12-12T16:46:54.089Z,6.30
2018-12-12T16:48:59.128Z,6.23
2018-12-12T16:51:04.451Z,6.23
2018-12-12T16:53:11.869Z,6.13
2018-12-12T16:55:17.041Z,6.27
2018-12-12T16:57:22.227Z,6.40
2018-12-12T16:59:28.694Z,5.90
2018-12-12T17:01:34.083Z,6.43
2018-12-12T17:03:53.717Z,6.20
2018-12-12T17:05:59.296Z,6.80
2018-12-12T17:08:05.420Z,7.33
2018-12-12T17:10:12.572Z,7.70
2018-12-12T17:12:17.781Z,6.57
2018-12-12T17:14:28.339Z,7.10
2018-12-12T17:16:33.612Z,5.90
2018-12-12T17:18:39.655Z,7.00
2018-12-12T17:20:45.031Z,6.83
2018-12-12T17:22:52.698Z,7.73
2018-12-12T17:24:57.918Z,8.43
2018-12-12T17:27:03.465Z,6.80
2018-12-12T17:29:10.350Z,6.40
2018-12-12T17:31:16.873Z,6.80
2018-12-12T17:33:24.627Z,6.67
2018-12-12T17:35:30.066Z,6.37
2018-12-12T17:37:41.695Z,7.30
2018-12-12T17:39:47.221Z,6.30
2018-12-12T17:41:54.168Z,6.40
2018-12-12T17:43:59.632Z,6.20
2018-12-12T17:46:05.011Z,6.57
2018-12-12T17:48:12.418Z,5.50
2018-12-12T17:50:19.765Z,6.30
2018-12-12T17:52:26.864Z,6.97
2018-12-12T17:54:33.809Z,6.90
2018-12-12T17:56:39.608Z,6.93
2018-12-12T17:58:45.220Z,6.43
2018-12-12T18:00:52.791Z,6.90
2018-12-12T18:02:58.218Z,4.90
2018-12-12T18:05:04.038Z,6.23
2018-12-12T18:07:10.782Z,6.50
2018-12-12T18:09:17.179Z,6.53
2018-12-12T18:11:24.534Z,6.57
2018-12-12T18:13:30.765Z,6.40
2018-12-12T18:15:36.194Z,6.33
2018-12-12T18:17:42.028Z,6.07
2018-12-12T18:19:47.555Z,6.60
2018-12-12T18:21:54.413Z,5.43
2018-12-12T18:24:00.862Z,5.47
2018-12-12T18:26:06.036Z,6.90
2018-12-12T18:28:11.208Z,5.50
2018-12-12T18:30:16.790Z,5.40
2018-12-12T18:32:21.838Z,5.20
2018-12-12T18:34:27.618Z,5.00
2018-12-12T18:36:32.933Z,5.13
2018-12-12T18:38:39.048Z,4.40
2018-12-12T18:40:45.376Z,4.80
2018-12-12T18:42:51.833Z,4.97
2018-12-12T18:44:58.218Z,6.10
2018-12-12T18:47:04.043Z,5.93
2018-12-12T18:49:10.630Z,5.50
2018-12-12T18:51:15.672Z,4.80
2018-12-12T18:53:20.849Z,5.40
2018-12-12T18:55:26.594Z,5.10
2018-12-12T18:57:31.623Z,4.83
2018-12-12T18:59:36.830Z,4.90
2018-12-12T19:01:42.251Z,4.73
2018-12-12T19:03:48.846Z,5.13
2018-12-12T19:05:54.257Z,5.47
2018-12-12T19:07:59.946Z,5.10
2018-12-12T19:10:05.828Z,5.60
2018-12-12T19:12:11.214Z,5.07
2018-12-12T19:14:18.525Z,5.37
2018-12-12T19:16:25.553Z,5.83
2018-12-12T19:18:33.342Z,4.90
2018-12-12T19:20:38.434Z,5.33
2018-12-12T19:22:44.904Z,5.17
2018-12-12T19:24:50.779Z,5.20
2018-12-12T19:26:56.494Z,4.87
2018-12-12T19:29:02.198Z,5.20
2018-12-12T19:31:08.356Z,5.20
2018-12-12T19:33:15.104Z,5.80
2018-12-12T19:35:21.211Z,5.20
2018-12-12T19:37:28.864Z,5.00
2018-12-12T19:39:34.756Z,5.10
2018-12-12T19:41:39.780Z,5.37
2018-12-12T19:43:46.565Z,5.43
2018-12-12T19:45:55.556Z,5.57
2018-12-12T19:48:04.587Z,5.00
2018-12-12T19:50:10.330Z,5.07
2018-12-12T19:52:16.642Z,5.20
2018-12-12T19:54:22.624Z,5.80
2018-12-12T19:56:28.092Z,5.27
2018-12-12T19:58:37.157Z,4.90
2018-12-12T20:00:49.119Z,4.43
2018-12-12T20:03:00.028Z,4.73
2018-12-12T20:05:12.341Z,4.67
2018-12-12T20:07:21.709Z,4.60
2018-12-12T20:09:30.768Z,5.30
2018-12-12T20:11:40.354Z,5.23
2018-12-12T20:13:51.507Z,5.10
2018-12-12T20:16:01.028Z,4.87
2018-12-12T20:18:09.798Z,5.40
2018-12-12T20:20:17.051Z,6.50
2018-12-12T20:22:25.917Z,5.73
2018-12-12T20:24:39.555Z,7.10
2018-12-12T20:26:48.991Z,5.90
2018-12-12T20:29:00.086Z,6.63
2018-12-12T20:31:11.590Z,6.70
2018-12-12T20:33:21.503Z,5.53
2018-12-12T20:35:32.137Z,6.23
2018-12-12T20:37:43.410Z,7.63
2018-12-12T20:39:56.313Z,5.30
2018-12-12T20:42:07.862Z,6.37
2018-12-12T20:44:15.536Z,5.30
2018-12-12T20:46:22.295Z,5.00
2018-12-12T20:48:32.746Z,5.60
2018-12-12T20:50:43.222Z,5.40
2018-12-12T20:52:49.432Z,5.93
2018-12-12T20:54:58.116Z,5.20
2018-12-12T20:57:08.759Z,6.47
2018-12-12T20:59:17.361Z,4.83
2018-12-12T21:01:25.867Z,5.00
2018-12-12T21:03:36.546Z,5.00
2018-12-12T21:05:54.342Z,4.70
2018-12-12T21:07:59.426Z,4.13
2018-12-12T21:10:10.801Z,4.73
2018-12-12T21:12:20.671Z,4.50
2018-12-12T21:14:30.337Z,4.50
2018-12-12T21:16:37.410Z,4.33
2018-12-12T21:18:46.527Z,5.57
2018-12-12T21:20:58.813Z,5.10
2018-12-12T21:23:05.794Z,4.90
2018-12-12T21:25:13.687Z,5.03
2018-12-12T21:27:21.769Z,5.87
2018-12-12T21:29:28.133Z,6.13
2018-12-12T21:31:35.222Z,6.13
2018-12-12T21:33:41.801Z,6.30
2018-12-12T21:35:51.579Z,6.37
2018-12-12T21:37:58.488Z,7.17
2018-12-12T21:40:03.913Z,5.23
2018-12-12T21:42:09.997Z,5.63
2018-12-12T21:44:15.486Z,5.13
2018-12-12T21:46:22.226Z,6.70
2018-12-12T21:48:28.546Z,4.90
2018-12-12T21:50:34.723Z,7.20
2018-12-12T21:55:11.545Z,5.73
2018-12-12T21:57:17.565Z,7.37
2018-12-12T21:59:22.993Z,7.30
2018-12-12T22:01:31.066Z,7.40
2018-12-12T22:03:36.553Z,5.70
2018-12-12T22:05:42.254Z,6.30
2018-12-12T22:07:47.852Z,7.70
2018-12-12T22:09:53.399Z,7.20
2018-12-12T22:11:58.753Z,7.33
2018-12-12T22:14:04.318Z,6.83
2018-12-12T22:16:11.578Z,8.03
2018-12-12T22:18:17.769Z,9.13
2018-12-12T22:20:23.861Z,8.13
2018-12-12T22:22:29.417Z,8.40
2018-12-12T22:24:35.612Z,7.30
2018-12-12T22:26:42.065Z,6.23
2018-12-12T22:28:48.553Z,7.27
2018-12-12T22:30:55.325Z,8.20
2018-12-12T22:33:00.733Z,7.53
2018-12-12T22:35:06.682Z,7.60
2018-12-12T22:37:13.400Z,7.00
2018-12-12T22:39:18.733Z,7.20
2018-12-12T22:41:24.374Z,7.80
2018-12-12T22:43:29.380Z,6.33
2018-12-12T22:45:34.730Z,6.77
2018-12-12T22:47:41.454Z,8.23
2018-12-12T22:49:47.642Z,7.57
2018-12-12T22:51:53.513Z,7.87
2018-12-12T22:53:59.990Z,7.00
2018-12-12T22:56:05.459Z,6.80
2018-12-12T22:58:12.355Z,7.13
2018-12-12T23:06:43.657Z,5.93
2018-12-12T23:08:48.935Z,7.40
2018-12-12T23:10:54.014Z,6.13
2018-12-12T23:12:59.192Z,7.90
2018-12-12T23:15:05.197Z,6.87
2018-12-12T23:17:10.641Z,6.90
2018-12-12T23:19:15.985Z,6.00
2018-12-12T23:21:21.488Z,7.00
2018-12-12T23:23:26.867Z,6.60
2018-12-12T23:25:32.396Z,7.50
2018-12-12T23:27:38.489Z,6.73
2018-12-12T23:29:43.715Z,7.53
2018-12-12T23:31:51.177Z,7.43
2018-12-12T23:33:57.518Z,6.30
2018-12-12T23:36:04.276Z,8.00
2018-12-12T23:38:09.832Z,6.23
2018-12-12T23:40:15.840Z,7.90
2018-12-12T23:42:21.226Z,6.83
2018-12-12T23:44:26.479Z,6.87
2018-12-12T23:46:31.988Z,7.37
2018-12-12T23:48:36.891Z,6.30
2018-12-12T23:50:42.027Z,8.10
2018-12-12T23:52:47.103Z,6.80
2018-12-12T23:54:52.590Z,7.17
2018-12-12T23:56:58.110Z,7.60
2018-12-12T23:59:03.966Z,5.53
